createdAt,value
2022-12-13T00:00:42.110Z,20.73
2022-12-13T00:02:44.888Z,21.88
2022-12-13T00:04:46.634Z,17.10
2022-12-13T00:06:48.867Z,22.63
2022-12-13T00:08:50.456Z,18.80
2022-12-13T00:11:03.093Z,17.65
2022-12-13T00:13:04.605Z,19.30
2022-12-13T00:15:07.015Z,16.58
2022-12-13T00:17:08.568Z,16.63
2022-12-13T00:19:09.994Z,17.83
2022-12-13T00:21:14.552Z,32.33
2022-12-13T00:23:15.972Z,19.48
2022-12-13T00:25:19.849Z,16.42
2022-12-13T00:27:21.270Z,15.10
2022-12-13T00:29:22.751Z,20.88
2022-12-13T00:33:47.461Z,12.45
2022-12-13T00:35:48.903Z,17.73
2022-12-13T00:37:50.387Z,16.13
2022-12-13T00:39:51.958Z,16.02
2022-12-13T00:41:53.420Z,18.17
2022-12-13T00:43:54.850Z,23.38
2022-12-13T00:45:56.353Z,17.98
2022-12-13T00:47:57.780Z,13.25
2022-12-13T00:49:59.290Z,16.10
2022-12-13T00:52:00.839Z,15.73
2022-12-13T00:54:02.465Z,20.23
2022-12-13T00:56:05.212Z,12.88
2022-12-13T00:58:06.701Z,18.30
2022-12-13T01:00:09.437Z,10.93
2022-12-13T01:02:10.906Z,17.20
2022-12-13T01:04:12.860Z,16.60
2022-12-13T01:06:18.468Z,18.67
2022-12-13T01:08:19.965Z,16.90
2022-12-13T01:10:22.254Z,18.45
2022-12-13T01:12:23.961Z,13.43
2022-12-13T01:14:25.985Z,17.25
2022-12-13T01:16:27.527Z,13.50
2022-12-13T01:18:29.060Z,14.98
2022-12-13T01:20:30.563Z,9.20
2022-12-13T01:22:32.011Z,13.18
2022-12-13T01:24:34.354Z,11.95
2022-12-13T01:26:35.813Z,11.77
2022-12-13T01:28:37.250Z,11.38
2022-12-13T01:30:38.785Z,13.57
2022-12-13T01:32:40.306Z,14.05
2022-12-13T01:34:41.755Z,19.27
2022-12-13T01:36:45.756Z,12.38
2022-12-13T01:38:47.352Z,11.02
2022-12-13T01:40:58.762Z,9.13
2022-12-13T01:43:00.632Z,12.25
2022-12-13T01:45:06.270Z,10.65
2022-12-13T01:47:07.781Z,13.65
2022-12-13T01:49:19.157Z,13.88
2022-12-13T01:51:26.554Z,12.85
2022-12-13T01:53:33.455Z,13.60
2022-12-13T01:55:41.653Z,14.40
2022-12-13T01:57:46.003Z,11.77
2022-12-13T01:59:49.078Z,11.90
2022-12-13T02:01:51.271Z,30.35
2022-12-13T02:03:52.794Z,13.10
2022-12-13T02:06:03.358Z,15.30
2022-12-13T02:08:07.673Z,14.70
2022-12-13T02:10:10.373Z,13.70
2022-12-13T02:12:12.726Z,12.70
2022-12-13T02:14:14.183Z,18.65
2022-12-13T02:16:34.802Z,16.15
2022-12-13T02:19:04.394Z,15.98
2022-12-13T02:22:04.957Z,11.10
2022-12-13T02:24:15.414Z,11.80
2022-12-13T02:26:31.819Z,34.10
2022-12-13T02:28:42.389Z,12.35
2022-12-13T02:30:49.933Z,12.30
2022-12-13T02:33:11.705Z,13.60
2022-12-13T02:35:27.979Z,23.92
2022-12-13T02:37:47.988Z,23.10
2022-12-13T02:40:15.588Z,12.52
2022-12-13T02:42:26.098Z,11.15
2022-12-13T02:44:33.015Z,11.57
2022-12-13T02:46:41.007Z,11.07
2022-12-13T02:48:43.421Z,11.80
2022-12-13T02:50:46.339Z,12.65
2022-12-13T02:52:49.063Z,14.85
2022-12-13T02:54:50.512Z,12.52
2022-12-13T02:57:00.269Z,15.30
2022-12-13T02:59:05.104Z,11.10
2022-12-13T03:01:40.203Z,10.77
2022-12-13T03:03:56.067Z,10.18
2022-12-13T03:06:33.322Z,11.25
2022-12-13T03:08:51.400Z,11.50
2022-12-13T03:11:11.311Z,10.68
2022-12-13T03:13:40.811Z,17.27
2022-12-13T03:17:55.486Z,14.02
2022-12-13T03:19:57.004Z,29.63
2022-12-13T03:21:58.442Z,17.15
2022-12-13T03:23:59.881Z,35.70
2022-12-13T03:26:14.869Z,15.23
2022-12-13T03:28:16.439Z,14.63
2022-12-13T03:30:17.924Z,13.75
2022-12-13T03:32:19.374Z,13.63
2022-12-13T03:34:23.018Z,13.60
2022-12-13T03:36:25.349Z,12.35
2022-12-13T03:38:26.892Z,11.55
2022-12-13T03:40:30.128Z,10.30
2022-12-13T03:42:31.655Z,10.75
2022-12-13T03:44:33.124Z,10.32
2022-12-13T03:46:35.068Z,9.98
2022-12-13T03:48:37.030Z,10.35
2022-12-13T03:50:38.545Z,9.32
2022-12-13T03:52:40.000Z,10.52
2022-12-13T03:54:45.352Z,10.52
2022-12-13T03:56:46.971Z,10.38
2022-12-13T03:58:48.406Z,9.40
2022-12-13T04:00:49.892Z,10.88
2022-12-13T04:02:51.477Z,10.07
2022-12-13T04:04:52.955Z,9.85
2022-12-13T04:06:54.396Z,10.82
2022-12-13T04:08:55.914Z,10.68
2022-12-13T04:10:57.411Z,11.07
2022-12-13T04:13:17.571Z,11.05
2022-12-13T04:15:19.059Z,10.45
2022-12-13T04:17:20.582Z,10.98
2022-12-13T04:19:23.574Z,11.68
2022-12-13T04:21:25.624Z,10.98
2022-12-13T04:23:27.059Z,10.68
2022-12-13T04:25:28.462Z,10.52
2022-12-13T04:27:29.966Z,10.13
2022-12-13T04:29:33.794Z,9.55
2022-12-13T04:31:36.441Z,10.02
2022-12-13T04:33:38.029Z,10.30
2022-12-13T04:35:39.507Z,9.88
2022-12-13T04:37:43.441Z,10.50
2022-12-13T04:39:47.934Z,11.43
2022-12-13T04:41:51.722Z,12.23
2022-12-13T04:43:54.227Z,12.40
2022-12-13T04:45:56.451Z,10.43
2022-12-13T04:47:57.926Z,12.48
2022-12-13T04:49:59.433Z,11.57
2022-12-13T04:52:02.503Z,9.52
2022-12-13T04:54:23.654Z,9.75
2022-12-13T04:56:25.507Z,31.63
2022-12-13T04:58:27.303Z,20.23
2022-12-13T05:00:28.762Z,10.70
2022-12-13T05:02:30.259Z,22.58
2022-12-13T05:04:33.135Z,13.27
2022-12-13T05:06:34.994Z,31.88
2022-12-13T05:08:37.836Z,16.92
2022-12-13T05:10:39.453Z,16.45
2022-12-13T05:12:41.021Z,22.50
2022-12-13T05:14:42.496Z,19.75
2022-12-13T05:16:43.954Z,28.98
2022-12-13T05:18:45.517Z,23.60
2022-12-13T05:20:47.002Z,28.45
2022-12-13T05:22:48.451Z,54.88
2022-12-13T05:24:50.022Z,46.05
2022-12-13T05:26:51.748Z,47.97
2022-12-13T05:28:55.821Z,45.95
2022-12-13T05:31:27.277Z,68.03
2022-12-13T05:33:28.755Z,55.00
2022-12-13T05:35:30.190Z,32.10
2022-12-13T05:37:34.889Z,30.02
2022-12-13T05:39:36.826Z,152.10
2022-12-13T05:41:38.353Z,77.55
2022-12-13T05:43:43.136Z,34.25
2022-12-13T05:45:44.964Z,35.75
2022-12-13T05:47:48.448Z,60.45
2022-12-13T05:49:49.974Z,36.90
2022-12-13T05:51:51.526Z,24.17
2022-12-13T05:53:53.556Z,23.42
2022-12-13T05:55:55.122Z,28.70
2022-12-13T05:58:02.248Z,31.23
2022-12-13T06:00:07.573Z,55.70
2022-12-13T06:02:29.141Z,20.23
2022-12-13T06:04:30.881Z,20.98
2022-12-13T06:06:32.398Z,33.90
2022-12-13T06:08:34.243Z,23.33
2022-12-13T06:10:35.800Z,44.13
2022-12-13T06:12:43.332Z,31.65
2022-12-13T06:14:45.635Z,34.15
2022-12-13T06:16:47.120Z,24.45
2022-12-13T06:18:50.509Z,28.10
2022-12-13T06:21:00.658Z,24.05
2022-12-13T06:23:02.112Z,27.75
2022-12-13T06:25:03.793Z,34.88
2022-12-13T06:27:05.370Z,30.92
2022-12-13T06:29:06.786Z,20.80
2022-12-13T06:31:08.383Z,24.40
2022-12-13T06:33:10.920Z,24.52
2022-12-13T06:35:28.566Z,21.15
2022-12-13T06:37:31.214Z,30.85
2022-12-13T06:39:33.779Z,33.97
2022-12-13T06:41:36.392Z,27.45
2022-12-13T06:43:38.200Z,31.27
2022-12-13T06:45:40.754Z,34.88
2022-12-13T06:47:42.368Z,31.85
2022-12-13T06:49:44.590Z,23.70
2022-12-13T06:51:46.403Z,23.80
2022-12-13T06:53:48.156Z,23.88
2022-12-13T06:55:49.599Z,22.00
2022-12-13T06:57:51.758Z,21.35
2022-12-13T06:59:53.292Z,33.33
2022-12-13T07:01:54.763Z,24.77
2022-12-13T07:04:30.329Z,26.00
2022-12-13T07:06:30.492Z,27.33
2022-12-13T07:08:32.087Z,36.47
2022-12-13T07:10:33.922Z,31.13
2022-12-13T07:12:35.369Z,25.83
2022-12-13T07:14:41.051Z,23.17
2022-12-13T07:16:42.933Z,30.02
2022-12-13T07:18:44.796Z,35.17
2022-12-13T07:20:46.453Z,46.00
2022-12-13T07:22:58.364Z,51.97
2022-12-13T07:25:00.373Z,36.25
2022-12-13T07:27:03.171Z,38.58
2022-12-13T07:29:05.036Z,31.05
2022-12-13T07:31:07.949Z,34.65
2022-12-13T07:33:09.980Z,39.80
2022-12-13T07:35:11.414Z,31.33
2022-12-13T07:37:30.002Z,32.20
2022-12-13T07:41:33.891Z,46.25
2022-12-13T07:43:36.160Z,41.17
2022-12-13T07:45:37.606Z,61.53
2022-12-13T07:47:39.039Z,38.97
2022-12-13T07:49:40.788Z,44.40
2022-12-13T07:51:42.210Z,61.70
2022-12-13T07:53:43.661Z,54.35
2022-12-13T07:55:45.086Z,29.42
2022-12-13T07:57:46.549Z,35.17
2022-12-13T07:59:47.953Z,24.80
2022-12-13T08:01:49.492Z,48.35
2022-12-13T08:03:51.185Z,30.63
2022-12-13T08:06:22.032Z,29.45
2022-12-13T08:08:23.685Z,33.53
2022-12-13T08:12:34.456Z,47.85
2022-12-13T08:14:35.874Z,20.13
2022-12-13T08:16:37.384Z,20.83
2022-12-13T08:18:41.963Z,37.58
2022-12-13T08:20:43.432Z,23.42
2022-12-13T08:22:44.893Z,22.05
2022-12-13T08:24:51.129Z,14.40
2022-12-13T08:26:52.573Z,23.55
2022-12-13T08:28:54.119Z,19.25
2022-12-13T08:30:55.653Z,10.32
2022-12-13T08:32:57.807Z,15.10
2022-12-13T08:34:59.295Z,29.33
2022-12-13T08:37:01.426Z,41.72
2022-12-13T08:39:04.655Z,32.13
2022-12-13T08:41:06.759Z,109.00
2022-12-13T08:43:08.199Z,69.22
2022-12-13T08:45:10.273Z,18.58
2022-12-13T08:47:11.833Z,25.55
2022-12-13T08:49:13.393Z,15.23
2022-12-13T08:51:15.626Z,13.48
2022-12-13T08:53:28.225Z,33.60
2022-12-13T08:55:31.529Z,23.67
2022-12-13T08:57:36.845Z,27.55
2022-12-13T08:59:38.331Z,33.03
2022-12-13T09:01:39.884Z,26.08
2022-12-13T09:03:41.367Z,22.13
2022-12-13T09:05:43.591Z,23.92
2022-12-13T09:07:45.012Z,16.17
2022-12-13T09:09:46.546Z,43.50
2022-12-13T09:11:59.123Z,16.55
2022-12-13T09:14:01.758Z,18.70
2022-12-13T09:16:14.198Z,17.00
2022-12-13T09:18:24.824Z,19.33
2022-12-13T09:20:29.789Z,12.60
2022-12-13T09:22:33.365Z,15.48
2022-12-13T09:24:36.493Z,14.10
2022-12-13T09:26:38.740Z,13.25
2022-12-13T09:28:41.084Z,12.77
2022-12-13T09:30:42.515Z,12.38
2022-12-13T09:32:49.684Z,13.85
2022-12-13T09:34:51.258Z,13.25
2022-12-13T09:36:52.793Z,11.95
2022-12-13T09:38:55.727Z,11.52
2022-12-13T09:41:00.940Z,14.32
2022-12-13T09:43:12.941Z,22.88
2022-12-13T09:45:22.624Z,17.38
2022-12-13T09:47:39.142Z,12.82
2022-12-13T09:49:52.193Z,13.07
2022-12-13T09:52:10.535Z,11.30
2022-12-13T09:54:19.125Z,11.60
2022-12-13T09:56:23.754Z,11.38
2022-12-13T09:58:28.728Z,14.25
2022-12-13T10:00:35.430Z,10.25
2022-12-13T10:02:55.540Z,12.43
2022-12-13T10:05:22.213Z,13.02
2022-12-13T10:07:25.312Z,13.65
2022-12-13T10:09:27.163Z,12.85
2022-12-13T10:11:32.436Z,11.40
2022-12-13T10:13:46.368Z,17.75
2022-12-13T10:15:53.294Z,12.63
2022-12-13T10:17:56.024Z,38.22
2022-12-13T10:19:57.741Z,48.97
2022-12-13T10:22:01.937Z,40.50
2022-12-13T10:24:26.496Z,38.28
2022-12-13T10:26:37.620Z,18.55
2022-12-13T10:28:40.641Z,12.40
2022-12-13T10:30:46.388Z,45.13
2022-12-13T10:32:56.105Z,16.05
2022-12-13T10:34:57.773Z,20.88
2022-12-13T10:36:59.671Z,21.65
2022-12-13T10:39:02.305Z,18.55
2022-12-13T10:41:23.711Z,11.07
2022-12-13T10:43:36.148Z,9.18
2022-12-13T10:45:41.233Z,8.93
2022-12-13T10:47:44.774Z,14.00
2022-12-13T10:49:52.354Z,33.58
2022-12-13T10:52:01.797Z,11.75
2022-12-13T10:54:03.392Z,15.25
2022-12-13T10:56:05.673Z,28.80
2022-12-13T10:58:09.829Z,20.33
2022-12-13T11:00:49.315Z,80.55
2022-12-13T11:04:58.337Z,54.85
2022-12-13T11:07:20.044Z,17.27
2022-12-13T11:09:38.729Z,12.82
2022-12-13T11:11:41.048Z,32.20
2022-12-13T11:13:46.680Z,47.38
2022-12-13T11:15:55.397Z,29.35
2022-12-13T11:18:06.492Z,15.00
2022-12-13T11:20:18.304Z,18.08
2022-12-13T11:22:29.261Z,22.10
2022-12-13T11:24:34.034Z,26.15
2022-12-13T11:26:39.312Z,13.02
2022-12-13T11:28:41.093Z,13.55
2022-12-13T11:31:13.536Z,11.23
2022-12-13T11:33:32.805Z,16.00
2022-12-13T11:35:52.814Z,25.27
2022-12-13T11:38:00.427Z,9.55
2022-12-13T11:40:14.208Z,15.73
2022-12-13T11:42:41.223Z,14.35
2022-12-13T11:45:06.884Z,17.10
2022-12-13T11:47:16.804Z,45.33
2022-12-13T11:49:28.198Z,25.02
2022-12-13T11:51:46.603Z,20.63
2022-12-13T11:53:56.198Z,45.58
2022-12-13T11:56:11.022Z,62.22
2022-12-13T11:58:45.809Z,63.47
2022-12-13T12:00:50.931Z,27.88
2022-12-13T12:02:56.777Z,28.70
2022-12-13T12:05:01.102Z,31.83
2022-12-13T12:07:31.849Z,29.42
2022-12-13T12:09:37.241Z,70.10
2022-12-13T12:11:46.339Z,36.42
2022-12-13T12:13:52.976Z,58.00
2022-12-13T12:16:01.635Z,95.50
2022-12-13T12:20:31.753Z,34.40
2022-12-13T12:23:06.879Z,55.88
2022-12-13T12:25:29.106Z,38.35
2022-12-13T12:28:12.321Z,37.33
2022-12-13T12:30:22.480Z,32.92
2022-12-13T12:32:37.563Z,55.05
2022-12-13T12:34:56.914Z,34.08
2022-12-13T12:37:28.454Z,36.13
2022-12-13T12:39:49.834Z,42.85
2022-12-13T12:42:05.814Z,48.22
2022-12-13T12:44:19.142Z,32.05
2022-12-13T12:47:09.288Z,91.05
2022-12-13T12:49:29.747Z,31.40
2022-12-13T12:51:44.550Z,30.90
2022-12-13T12:54:07.812Z,29.33
2022-12-13T12:56:28.785Z,58.17
2022-12-13T12:58:42.069Z,62.30
2022-12-13T13:00:49.743Z,47.13
2022-12-13T13:03:17.207Z,42.95
2022-12-13T13:05:32.727Z,26.98
2022-12-13T13:07:39.639Z,27.35
2022-12-13T13:09:42.494Z,48.00
2022-12-13T13:11:46.342Z,37.75
2022-12-13T13:14:01.852Z,27.25
2022-12-13T13:16:05.316Z,32.15
2022-12-13T13:18:42.890Z,41.17
2022-12-13T13:20:44.371Z,36.30
2022-12-13T13:22:58.558Z,34.88
2022-12-13T13:25:08.342Z,28.85
2022-12-13T13:27:09.905Z,27.90
2022-12-13T13:29:27.260Z,32.97
2022-12-13T13:32:01.167Z,28.33
2022-12-13T13:34:23.463Z,25.08
2022-12-13T13:36:44.708Z,54.75
2022-12-13T13:38:51.687Z,29.42
2022-12-13T13:40:53.214Z,21.60
2022-12-13T13:43:10.022Z,17.38
2022-12-13T13:45:25.026Z,21.77
2022-12-13T13:47:39.135Z,22.25
2022-12-13T13:50:02.477Z,20.08
2022-12-13T13:52:28.437Z,14.85
2022-12-13T13:54:57.556Z,15.30
2022-12-13T13:57:33.397Z,15.75
2022-12-13T14:00:17.517Z,18.23
2022-12-13T14:02:48.531Z,20.40
2022-12-13T14:05:14.684Z,49.05
2022-12-13T14:07:53.291Z,38.88
2022-12-13T14:10:27.252Z,33.65
2022-12-13T14:12:49.154Z,27.80
2022-12-13T14:15:36.298Z,32.30
2022-12-13T14:18:11.874Z,67.35
2022-12-13T14:20:22.365Z,25.92
2022-12-13T14:22:26.461Z,61.08
2022-12-13T14:24:58.747Z,39.25
2022-12-13T14:27:21.851Z,61.47
2022-12-13T14:29:58.378Z,27.45
2022-12-13T14:32:00.972Z,24.15
2022-12-13T14:34:04.820Z,27.50
2022-12-13T14:36:13.419Z,30.75
2022-12-13T14:38:25.115Z,48.20
2022-12-13T14:40:30.617Z,43.38
2022-12-13T14:42:34.243Z,79.07
2022-12-13T14:44:35.786Z,110.53
2022-12-13T14:46:37.266Z,68.18
2022-12-13T14:48:51.086Z,52.47
2022-12-13T14:50:53.179Z,69.32
2022-12-13T14:52:55.865Z,50.67
2022-12-13T14:55:00.287Z,76.88
2022-12-13T14:57:04.552Z,48.95
2022-12-13T14:59:13.382Z,53.63
2022-12-13T15:01:41.442Z,74.45
2022-12-13T15:03:42.963Z,60.00
2022-12-13T15:05:50.991Z,72.40
2022-12-13T15:07:53.276Z,56.03
2022-12-13T15:10:00.840Z,66.07
2022-12-13T15:12:23.449Z,75.85
2022-12-13T15:14:26.663Z,64.07
2022-12-13T15:16:29.477Z,68.15
2022-12-13T15:18:31.075Z,67.50
2022-12-13T15:20:33.475Z,54.25
2022-12-13T15:22:35.126Z,94.82
2022-12-13T15:24:40.963Z,71.72
2022-12-13T15:26:43.268Z,103.43
2022-12-13T15:28:47.031Z,83.75
2022-12-13T15:30:48.752Z,80.28
2022-12-13T15:33:04.747Z,88.80
2022-12-13T15:35:16.957Z,156.55
2022-12-13T15:37:37.191Z,100.40
2022-12-13T15:39:41.682Z,95.90
2022-12-13T15:41:51.313Z,101.80
2022-12-13T15:43:55.931Z,68.65
2022-12-13T15:45:57.644Z,72.88
2022-12-13T15:47:59.457Z,79.20
2022-12-13T15:50:03.697Z,88.43
2022-12-13T15:52:06.802Z,141.20
2022-12-13T15:54:11.040Z,112.68
2022-12-13T15:56:58.766Z,124.88
2022-12-13T15:59:01.357Z,97.20
2022-12-13T16:01:05.433Z,107.53
2022-12-13T16:03:16.287Z,137.75
2022-12-13T16:05:35.382Z,108.10
2022-12-13T16:07:40.170Z,99.40
2022-12-13T16:09:41.702Z,111.45
2022-12-13T16:11:58.685Z,101.78
2022-12-13T16:14:26.575Z,103.88
2022-12-13T16:16:30.567Z,124.22
2022-12-13T16:18:41.175Z,106.65
2022-12-13T16:20:44.013Z,70.97
2022-12-13T16:22:45.980Z,55.08
2022-12-13T16:24:48.838Z,73.53
2022-12-13T16:26:50.464Z,86.75
2022-12-13T16:28:53.646Z,91.53
2022-12-13T16:31:04.182Z,105.22
2022-12-13T16:33:27.354Z,83.00
2022-12-13T16:35:27.053Z,65.43
2022-12-13T16:37:28.554Z,57.72
2022-12-13T16:39:29.996Z,59.03
2022-12-13T16:41:35.632Z,59.83
2022-12-13T16:43:46.238Z,47.67
2022-12-13T16:45:53.288Z,46.63
2022-12-13T16:47:54.995Z,70.45
2022-12-13T16:49:56.511Z,65.05
2022-12-13T16:51:58.114Z,68.40
2022-12-13T16:53:59.584Z,54.97
2022-12-13T16:56:01.501Z,46.25
2022-12-13T16:58:10.193Z,50.40
2022-12-13T17:00:13.137Z,40.83
2022-12-13T17:02:17.863Z,36.25
2022-12-13T17:04:22.503Z,32.70
2022-12-13T17:06:24.914Z,33.40
2022-12-13T17:08:26.431Z,28.02
2022-12-13T17:10:28.369Z,37.45
2022-12-13T17:12:29.825Z,43.83
2022-12-13T17:14:31.230Z,43.80
2022-12-13T17:16:32.961Z,42.88
2022-12-13T17:18:34.410Z,41.40
2022-12-13T17:20:36.409Z,38.75
2022-12-13T17:22:38.136Z,49.33
2022-12-13T17:24:39.959Z,74.25
2022-12-13T17:26:41.621Z,105.32
2022-12-13T17:28:56.514Z,97.15
2022-12-13T17:31:08.889Z,106.97
2022-12-13T17:33:13.327Z,190.88
2022-12-13T17:35:18.332Z,129.75
2022-12-13T17:37:20.925Z,166.73
2022-12-13T17:39:22.406Z,102.40
2022-12-13T17:41:23.996Z,91.70
2022-12-13T17:43:33.833Z,75.50
2022-12-13T17:45:38.925Z,52.78
2022-12-13T17:47:40.499Z,58.00
2022-12-13T17:49:42.130Z,48.65
2022-12-13T17:51:43.774Z,47.10
2022-12-13T17:53:52.973Z,62.70
2022-12-13T17:56:02.097Z,114.90
2022-12-13T18:00:07.084Z,142.43
2022-12-13T18:02:12.386Z,126.55
2022-12-13T18:04:14.503Z,106.18
2022-12-13T18:06:16.219Z,96.28
2022-12-13T18:08:18.531Z,78.68
2022-12-13T18:10:22.573Z,78.15
2022-12-13T18:12:27.927Z,76.50
2022-12-13T18:14:30.344Z,65.78
2022-12-13T18:16:37.942Z,59.15
2022-12-13T18:18:40.831Z,65.55
2022-12-13T18:20:43.817Z,52.20
2022-12-13T18:22:51.146Z,62.80
2022-12-13T18:24:53.110Z,114.95
2022-12-13T18:26:55.230Z,153.55
2022-12-13T18:28:56.846Z,86.05
2022-12-13T18:31:02.065Z,73.68
2022-12-13T18:33:05.472Z,79.85
2022-12-13T18:35:07.439Z,85.90
2022-12-13T18:37:09.076Z,90.90
2022-12-13T18:39:10.790Z,96.50
2022-12-13T18:41:16.767Z,97.57
2022-12-13T18:43:18.786Z,127.03
2022-12-13T18:45:21.291Z,98.03
2022-12-13T18:47:23.045Z,67.20
2022-12-13T18:49:24.730Z,78.97
2022-12-13T18:51:26.877Z,192.38
2022-12-13T18:53:29.449Z,188.18
2022-12-13T18:55:31.064Z,97.07
2022-12-13T18:57:32.646Z,81.47
2022-12-13T18:59:34.403Z,108.68
2022-12-13T19:01:36.170Z,109.90
2022-12-13T19:03:38.967Z,89.43
2022-12-13T19:05:40.890Z,241.15
2022-12-13T19:07:43.269Z,189.95
2022-12-13T19:09:54.858Z,76.70
2022-12-13T19:11:58.658Z,82.28
2022-12-13T19:14:00.355Z,104.78
2022-12-13T19:16:07.977Z,129.45
2022-12-13T19:18:09.803Z,153.93
2022-12-13T19:20:11.693Z,151.27
2022-12-13T19:22:14.617Z,144.15
2022-12-13T19:24:16.308Z,100.95
2022-12-13T19:26:17.992Z,90.30
2022-12-13T19:28:19.892Z,74.78
2022-12-13T19:30:23.755Z,69.68
2022-12-13T19:32:25.456Z,71.28
2022-12-13T19:34:27.103Z,82.50
2022-12-13T19:36:30.363Z,118.30
2022-12-13T19:38:32.687Z,192.00
2022-12-13T19:40:34.617Z,231.65
2022-12-13T19:42:36.248Z,274.92
2022-12-13T19:44:38.061Z,354.10
2022-12-13T19:46:40.329Z,316.52
2022-12-13T19:48:42.006Z,193.02
2022-12-13T19:50:44.431Z,142.45
2022-12-13T19:52:46.450Z,140.77
2022-12-13T19:54:48.097Z,111.70
2022-12-13T19:56:49.961Z,83.25
2022-12-13T19:58:54.288Z,75.15
2022-12-13T20:01:02.099Z,81.95
2022-12-13T20:03:04.132Z,79.97
2022-12-13T20:05:06.182Z,80.70
2022-12-13T20:07:07.648Z,98.18
2022-12-13T20:09:09.221Z,111.07
2022-12-13T20:11:13.926Z,102.50
2022-12-13T20:13:15.506Z,89.53
2022-12-13T20:15:17.165Z,79.03
2022-12-13T20:17:19.360Z,76.45
2022-12-13T20:19:20.989Z,115.90
2022-12-13T20:21:22.676Z,123.40
2022-12-13T20:23:24.866Z,117.30
2022-12-13T20:25:26.673Z,116.38
2022-12-13T20:27:28.286Z,85.97
2022-12-13T20:29:30.058Z,76.30
2022-12-13T20:31:33.938Z,62.45
2022-12-13T20:33:36.101Z,58.15
2022-12-13T20:35:54.263Z,62.83
2022-12-13T20:37:59.769Z,78.55
2022-12-13T20:40:01.333Z,119.20
2022-12-13T20:42:02.912Z,127.40
2022-12-13T20:44:06.986Z,84.90
2022-12-13T20:46:12.996Z,91.82
2022-12-13T20:48:14.577Z,110.72
2022-12-13T20:50:16.211Z,90.05
2022-12-13T20:52:17.730Z,86.60
2022-12-13T20:54:19.178Z,56.20
2022-12-13T20:56:23.842Z,53.53
2022-12-13T20:58:26.069Z,42.25
2022-12-13T21:00:27.658Z,48.67
2022-12-13T21:02:29.203Z,76.80
2022-12-13T21:04:30.830Z,40.47
2022-12-13T21:06:35.475Z,37.30
2022-12-13T21:08:52.152Z,39.33
2022-12-13T21:11:01.882Z,43.65
2022-12-13T21:13:06.421Z,50.35
2022-12-13T21:15:08.440Z,52.30
2022-12-13T21:17:12.025Z,41.85
2022-12-13T21:19:15.965Z,36.55
2022-12-13T21:21:17.404Z,38.63
2022-12-13T21:23:18.810Z,43.55
2022-12-13T21:25:20.326Z,51.47
2022-12-13T21:27:21.805Z,43.10
2022-12-13T21:29:23.675Z,43.30
2022-12-13T21:31:26.295Z,41.67
2022-12-13T21:33:29.334Z,39.65
2022-12-13T21:35:31.186Z,49.90
2022-12-13T21:37:32.653Z,36.15
2022-12-13T21:39:34.163Z,44.63
2022-12-13T21:41:35.823Z,43.97
2022-12-13T21:43:38.914Z,52.58
2022-12-13T21:45:41.716Z,48.95
2022-12-13T21:47:43.317Z,41.45
2022-12-13T21:49:48.597Z,40.05
2022-12-13T21:51:50.393Z,44.00
2022-12-13T21:53:53.147Z,59.35
2022-12-13T21:56:14.605Z,68.38
2022-12-13T21:58:34.737Z,69.78
2022-12-13T22:00:37.290Z,109.95
2022-12-13T22:02:38.974Z,87.20
2022-12-13T22:04:48.752Z,218.57
2022-12-13T22:06:50.220Z,134.57
2022-12-13T22:08:51.667Z,81.13
2022-12-13T22:11:21.593Z,55.15
2022-12-13T22:13:23.348Z,148.77
2022-12-13T22:15:25.207Z,171.55
2022-12-13T22:17:34.574Z,304.10
2022-12-13T22:19:36.390Z,145.00
2022-12-13T22:21:37.845Z,71.32
2022-12-13T22:23:39.334Z,66.35
2022-12-13T22:25:40.804Z,55.03
2022-12-13T22:27:42.314Z,51.58
2022-12-13T22:29:43.906Z,62.75
2022-12-13T22:31:48.733Z,71.70
2022-12-13T22:33:50.633Z,66.05
2022-12-13T22:35:52.066Z,70.22
2022-12-13T22:37:56.639Z,67.07
2022-12-13T22:40:00.288Z,82.00
2022-12-13T22:42:01.853Z,73.25
2022-12-13T22:44:03.462Z,77.30
2022-12-13T22:46:06.480Z,74.72
2022-12-13T22:48:08.251Z,71.03
2022-12-13T22:50:09.732Z,67.47
2022-12-13T22:52:12.134Z,73.15
2022-12-13T22:54:13.914Z,73.78
2022-12-13T22:56:20.339Z,72.57
2022-12-13T22:58:21.869Z,61.67
2022-12-13T23:00:23.506Z,77.40
2022-12-13T23:02:25.081Z,80.32
2022-12-13T23:04:26.824Z,70.60
2022-12-13T23:06:30.464Z,85.45
2022-12-13T23:08:31.963Z,77.00
2022-12-13T23:10:52.232Z,81.20
2022-12-13T23:13:02.493Z,78.30
2022-12-13T23:15:04.959Z,81.72
2022-12-13T23:17:06.616Z,75.88
2022-12-13T23:19:40.231Z,73.25
2022-12-13T23:21:32.234Z,79.38
2022-12-13T23:23:33.992Z,54.28
2022-12-13T23:25:35.700Z,40.60
2022-12-13T23:27:37.150Z,43.25
2022-12-13T23:29:38.645Z,54.60
2022-12-13T23:31:42.581Z,90.28
2022-12-13T23:33:50.173Z,83.75
2022-12-13T23:36:00.574Z,71.25
2022-12-13T23:38:04.258Z,61.70
2022-12-13T23:40:07.173Z,74.35
2022-12-13T23:42:08.851Z,62.55
2022-12-13T23:44:10.289Z,56.85
2022-12-13T23:46:20.560Z,51.42
2022-12-13T23:48:26.752Z,42.25
2022-12-13T23:50:28.525Z,40.63
2022-12-13T23:52:30.041Z,53.35
2022-12-13T23:54:31.726Z,69.13
2022-12-13T23:56:33.722Z,67.15
2022-12-13T23:58:37.548Z,54.05
